createdAt,value
2022-08-28T00:01:42.117Z,97977.55
2022-08-28T00:02:58.452Z,97985.48
2022-08-28T00:04:25.075Z,97980.55
2022-08-28T00:05:33.448Z,97978.14
2022-08-28T00:06:43.193Z,97981.90
2022-08-28T00:07:56.581Z,97984.19
2022-08-28T00:09:11.952Z,97984.52
2022-08-28T00:10:22.411Z,97984.75
2022-08-28T00:11:31.908Z,97983.27
2022-08-28T00:12:42.572Z,97983.20
2022-08-28T00:13:50.967Z,97984.30
2022-08-28T00:15:00.097Z,97986.05
2022-08-28T00:16:08.788Z,97987.15
2022-08-28T00:17:16.667Z,97988.48
2022-08-28T00:18:24.669Z,97991.05
2022-08-28T00:19:36.645Z,97989.38
2022-08-28T00:20:48.055Z,97987.11
2022-08-28T00:21:58.785Z,97985.48
2022-08-28T00:23:07.597Z,97985.77
2022-08-28T00:24:21.611Z,97987.79
2022-08-28T00:27:37.687Z,97984.27
2022-08-28T00:28:59.121Z,97987.77
2022-08-28T00:30:24.811Z,97980.43
2022-08-28T00:31:42.341Z,97977.30
2022-08-28T00:32:55.030Z,97979.84
2022-08-28T00:34:04.571Z,97981.97
2022-08-28T00:35:13.856Z,97982.38
2022-08-28T00:36:22.845Z,97982.55
2022-08-28T00:37:33.524Z,97982.20
2022-08-28T00:38:41.366Z,97979.91
2022-08-28T00:39:50.783Z,97979.06
2022-08-28T00:41:01.289Z,97977.64
2022-08-28T00:42:11.927Z,97973.62
2022-08-28T00:43:35.180Z,97973.31
2022-08-28T00:44:43.814Z,97972.34
2022-08-28T00:45:53.812Z,97971.32
2022-08-28T00:47:01.530Z,97973.20
2022-08-28T00:48:08.730Z,97970.13
2022-08-28T00:49:17.752Z,97973.02
2022-08-28T00:50:26.853Z,97968.18
2022-08-28T00:51:52.810Z,97974.95
2022-08-28T00:53:01.370Z,97975.27
2022-08-28T00:54:09.975Z,97972.78
2022-08-28T00:55:23.488Z,97974.48
2022-08-28T00:56:31.217Z,97976.88
2022-08-28T00:57:42.837Z,97976.18
2022-08-28T00:58:52.194Z,97975.61
2022-08-28T01:00:02.962Z,97976.00
2022-08-28T01:01:13.298Z,97979.47
2022-08-28T01:02:20.774Z,97981.65
2022-08-28T01:03:29.581Z,97982.67
2022-08-28T01:04:36.990Z,97981.48
2022-08-28T01:05:49.276Z,97981.63
2022-08-28T01:06:58.937Z,97981.41
2022-08-28T01:08:08.484Z,97982.06
2022-08-28T01:14:47.089Z,97981.91
2022-08-28T01:15:54.167Z,97985.89
2022-08-28T01:17:04.521Z,97985.92
2022-08-28T01:18:17.018Z,97985.72
2022-08-28T01:19:43.708Z,97985.73
2022-08-28T01:21:20.194Z,97988.79
2022-08-28T01:23:03.002Z,97989.91
2022-08-28T01:24:16.011Z,97987.85
2022-08-28T01:25:23.825Z,97988.12
2022-08-28T01:26:34.501Z,97993.91
2022-08-28T01:27:46.451Z,97993.30
2022-08-28T01:28:55.152Z,97996.59
2022-08-28T01:30:02.441Z,97996.31
2022-08-28T01:31:14.113Z,97994.55
2022-08-28T01:32:36.756Z,97993.11
2022-08-28T01:33:47.413Z,97992.16
2022-08-28T01:34:57.454Z,97993.39
2022-08-28T01:36:05.320Z,97995.25
2022-08-28T01:37:15.144Z,97997.57
2022-08-28T01:38:26.882Z,97997.99
2022-08-28T01:39:35.671Z,97994.89
2022-08-28T01:40:46.714Z,97994.08
2022-08-28T01:41:55.856Z,97990.42
2022-08-28T01:43:25.188Z,97991.29
2022-08-28T01:44:34.010Z,97992.28
2022-08-28T01:45:46.294Z,97991.98
2022-08-28T01:46:57.466Z,97990.39
2022-08-28T01:48:08.861Z,97989.14
2022-08-28T01:49:17.765Z,97988.56
2022-08-28T01:50:28.485Z,97987.73
2022-08-28T01:51:51.307Z,97992.73
2022-08-28T01:53:12.359Z,97990.76
2022-08-28T01:54:24.629Z,97991.11
2022-08-28T01:55:34.998Z,97992.39
2022-08-28T01:56:43.612Z,97989.58
2022-08-28T01:57:57.051Z,97993.54
2022-08-28T01:59:18.428Z,97996.03
2022-08-28T02:00:36.829Z,97994.86
2022-08-28T02:02:33.340Z,97992.63
2022-08-28T02:03:58.522Z,97991.58
2022-08-28T02:05:10.450Z,97992.21
2022-08-28T02:06:19.070Z,97992.23
2022-08-28T02:07:31.803Z,97991.84
2022-08-28T02:08:39.955Z,97989.88
2022-08-28T02:09:49.596Z,97990.04
2022-08-28T02:10:57.419Z,97989.29
2022-08-28T02:12:08.495Z,97988.66
2022-08-28T02:22:11.998Z,97998.61
2022-08-28T02:25:31.426Z,97999.84
2022-08-28T02:27:15.392Z,98002.35
2022-08-28T02:28:41.984Z,98006.23
2022-08-28T02:30:01.603Z,98006.70
2022-08-28T02:31:18.709Z,98008.99
2022-08-28T02:34:36.876Z,98015.52
2022-08-28T02:35:52.927Z,98021.04
2022-08-28T02:37:01.389Z,98026.23
2022-08-28T02:45:23.368Z,98030.89
2022-08-28T02:46:33.390Z,98035.78
2022-08-28T02:47:45.162Z,98034.39
2022-08-28T02:48:54.659Z,98038.67
2022-08-28T02:50:04.149Z,98037.72
2022-08-28T02:51:16.261Z,98036.27
2022-08-28T02:52:28.559Z,98037.86
2022-08-28T02:53:38.833Z,98037.99
2022-08-28T02:54:49.516Z,98037.41
2022-08-28T03:00:08.543Z,98044.80
2022-08-28T03:01:28.064Z,98045.94
2022-08-28T03:03:16.819Z,98043.59
2022-08-28T03:04:51.696Z,98046.38
2022-08-28T03:06:06.220Z,98049.04
2022-08-28T03:20:52.640Z,98061.45
2022-08-28T03:22:07.124Z,98061.63
2022-08-28T03:36:04.631Z,98063.42
2022-08-28T03:37:24.914Z,98067.21
2022-08-28T03:38:43.742Z,98067.94
2022-08-28T03:39:54.516Z,98069.92
2022-08-28T03:41:03.804Z,98069.23
2022-08-28T03:44:01.738Z,98076.70
2022-08-28T03:49:14.857Z,98079.98
2022-08-28T03:51:45.278Z,98082.69
2022-08-28T03:52:54.418Z,98084.16
2022-08-28T03:54:07.243Z,98087.05
2022-08-28T03:55:28.034Z,98085.77
2022-08-28T03:56:39.123Z,98089.27
2022-08-28T03:57:49.888Z,98089.33
2022-08-28T03:59:01.540Z,98093.21
2022-08-28T04:00:12.250Z,98093.98
2022-08-28T04:01:20.786Z,98093.55
2022-08-28T04:02:31.427Z,98097.30
2022-08-28T04:03:41.594Z,98095.93
2022-08-28T04:04:51.273Z,98097.14
2022-08-28T04:07:46.831Z,98101.20
2022-08-28T04:09:00.114Z,98102.80
2022-08-28T04:10:14.222Z,98103.96
2022-08-28T04:11:25.380Z,98115.05
2022-08-28T04:12:35.267Z,98109.11
2022-08-28T04:13:43.995Z,98112.25
2022-08-28T04:14:55.550Z,98114.56
2022-08-28T04:16:12.948Z,98113.80
2022-08-28T04:17:21.582Z,98115.11
2022-08-28T04:18:29.805Z,98116.05
2022-08-28T04:19:37.423Z,98116.21
2022-08-28T04:20:46.526Z,98117.16
2022-08-28T04:21:55.217Z,98119.03
2022-08-28T04:23:04.757Z,98119.05
2022-08-28T04:24:15.222Z,98123.81
2022-08-28T04:25:23.534Z,98123.71
2022-08-28T04:26:38.458Z,98124.49
2022-08-28T04:27:46.732Z,98122.97
2022-08-28T04:28:55.080Z,98123.96
2022-08-28T04:30:03.638Z,98126.09
2022-08-28T04:31:13.337Z,98127.13
2022-08-28T04:32:25.095Z,98126.86
2022-08-28T04:33:33.369Z,98130.55
2022-08-28T04:34:41.495Z,98130.82
2022-08-28T04:35:49.233Z,98133.50
2022-08-28T04:36:57.130Z,98134.06
2022-08-28T04:38:05.758Z,98135.88
2022-08-28T04:39:13.533Z,98136.74
2022-08-28T04:40:21.247Z,98140.23
2022-08-28T04:41:29.950Z,98139.20
2022-08-28T04:42:37.915Z,98141.39
2022-08-28T04:43:46.517Z,98141.06
2022-08-28T04:45:02.502Z,98144.56
2022-08-28T04:46:14.765Z,98142.56
2022-08-28T04:47:24.748Z,98143.44
2022-08-28T04:49:25.892Z,98144.63
2022-08-28T04:51:42.243Z,98147.25
2022-08-28T04:52:49.356Z,98152.02
2022-08-28T04:53:59.639Z,98159.38
2022-08-28T04:55:08.354Z,98157.89
2022-08-28T04:56:29.835Z,98158.90
2022-08-28T04:58:04.045Z,98162.77
2022-08-28T04:59:44.891Z,98163.70
2022-08-28T05:00:51.061Z,98165.77
2022-08-28T05:01:58.122Z,98168.00
2022-08-28T05:03:04.358Z,98167.18
2022-08-28T05:04:12.527Z,98168.21
2022-08-28T05:05:20.693Z,98170.66
2022-08-28T05:06:32.498Z,98168.36
2022-08-28T05:07:42.465Z,98168.36
2022-08-28T05:11:42.562Z,98171.01
2022-08-28T05:15:34.050Z,98171.65
2022-08-28T05:17:06.117Z,98172.80
2022-08-28T05:23:14.778Z,98173.94
2022-08-28T05:24:38.814Z,98172.90
2022-08-28T05:25:47.225Z,98174.81
2022-08-28T05:26:53.511Z,98172.52
2022-08-28T05:28:00.850Z,98173.93
2022-08-28T05:29:09.735Z,98176.39
2022-08-28T05:30:16.707Z,98176.98
2022-08-28T05:31:24.638Z,98176.05
2022-08-28T05:32:31.902Z,98176.60
2022-08-28T05:33:40.630Z,98179.98
2022-08-28T05:34:48.433Z,98184.27
2022-08-28T05:35:58.011Z,98183.98
2022-08-28T05:37:07.116Z,98187.04
2022-08-28T05:38:14.456Z,98187.42
2022-08-28T05:39:20.554Z,98190.45
2022-08-28T05:40:27.179Z,98189.35
2022-08-28T05:41:34.451Z,98191.36
2022-08-28T05:42:41.671Z,98196.42
2022-08-28T05:43:49.414Z,98198.66
2022-08-28T05:45:01.424Z,98197.00
2022-08-28T05:46:11.638Z,98195.24
2022-08-28T05:47:21.635Z,98194.21
2022-08-28T05:48:30.478Z,98194.86
2022-08-28T05:49:44.504Z,98199.54
2022-08-28T05:50:52.214Z,98198.17
2022-08-28T05:51:58.274Z,98198.16
2022-08-28T05:53:07.561Z,98196.58
2022-08-28T05:54:15.426Z,98195.95
2022-08-28T05:55:21.671Z,98195.66
2022-08-28T05:56:33.501Z,98196.54
2022-08-28T05:57:40.940Z,98195.11
2022-08-28T05:58:49.972Z,98195.59
2022-08-28T05:59:56.124Z,98193.80
2022-08-28T06:01:11.541Z,98191.44
2022-08-28T06:02:20.423Z,98194.86
2022-08-28T06:03:27.167Z,98193.44
2022-08-28T06:04:36.527Z,98196.31
2022-08-28T06:05:44.156Z,98197.89
2022-08-28T06:06:52.314Z,98195.89
2022-08-28T06:07:59.862Z,98196.19
2022-08-28T06:09:25.346Z,98198.27
2022-08-28T06:10:45.891Z,98198.02
2022-08-28T06:12:02.204Z,98197.91
2022-08-28T06:13:10.725Z,98196.44
2022-08-28T06:14:21.364Z,98198.21
2022-08-28T06:15:37.520Z,98194.39
2022-08-28T06:16:46.171Z,98195.79
2022-08-28T06:17:54.886Z,98194.20
2022-08-28T06:19:02.625Z,98196.14
2022-08-28T06:20:09.724Z,98196.52
2022-08-28T06:21:16.566Z,98199.45
2022-08-28T06:22:23.055Z,98199.63
2022-08-28T06:23:29.667Z,98198.30
2022-08-28T06:24:39.878Z,98201.73
2022-08-28T06:25:50.277Z,98203.17
2022-08-28T06:26:58.888Z,98202.73
2022-08-28T06:28:06.251Z,98198.25
2022-08-28T06:29:14.534Z,98199.43
2022-08-28T06:30:22.032Z,98199.09
2022-08-28T06:31:33.001Z,98198.15
2022-08-28T06:32:40.825Z,98202.06
2022-08-28T06:33:47.852Z,98204.55
2022-08-28T06:34:58.241Z,98202.54
2022-08-28T06:36:04.845Z,98204.37
2022-08-28T06:37:12.297Z,98204.14
2022-08-28T06:38:19.615Z,98206.89
2022-08-28T06:39:25.782Z,98207.42
2022-08-28T06:40:32.926Z,98207.24
2022-08-28T06:41:45.251Z,98207.71
2022-08-28T06:42:59.250Z,98210.04
2022-08-28T06:44:05.185Z,98205.36
2022-08-28T06:45:11.713Z,98206.80
2022-08-28T06:46:18.388Z,98208.04
2022-08-28T06:47:25.956Z,98205.37
2022-08-28T06:48:33.045Z,98205.63
2022-08-28T06:49:39.924Z,98209.58
2022-08-28T06:50:57.067Z,98210.41
2022-08-28T06:52:04.127Z,98210.46
2022-08-28T06:53:11.388Z,98208.77
2022-08-28T06:54:22.599Z,98207.70
2022-08-28T06:55:31.842Z,98204.97
2022-08-28T06:56:43.351Z,98204.91
2022-08-28T06:57:50.615Z,98202.78
2022-08-28T06:59:00.248Z,98202.27
2022-08-28T07:00:08.987Z,98199.06
2022-08-28T07:01:24.272Z,98203.84
2022-08-28T07:02:36.133Z,98206.27
2022-08-28T07:03:44.911Z,98208.33
2022-08-28T07:04:55.594Z,98207.91
2022-08-28T07:06:02.550Z,98208.45
2022-08-28T07:07:10.010Z,98207.73
2022-08-28T07:08:29.407Z,98207.70
2022-08-28T07:09:37.169Z,98210.41
2022-08-28T07:10:48.566Z,98209.58
2022-08-28T07:11:58.722Z,98210.95
2022-08-28T07:13:06.693Z,98211.90
2022-08-28T07:14:14.083Z,98213.42
2022-08-28T07:15:21.953Z,98213.95
2022-08-28T07:16:31.366Z,98211.54
2022-08-28T07:17:37.229Z,98214.73
2022-08-28T07:18:44.746Z,98213.41
2022-08-28T07:19:52.425Z,98216.17
2022-08-28T07:21:05.158Z,98219.95
2022-08-28T07:22:14.375Z,98220.71
2022-08-28T07:23:22.131Z,98221.21
2022-08-28T07:24:27.971Z,98225.83
2022-08-28T07:25:35.267Z,98221.30
2022-08-28T07:26:42.032Z,98223.14
2022-08-28T07:27:50.628Z,98219.48
2022-08-28T07:29:09.681Z,98216.05
2022-08-28T07:30:18.117Z,98215.42
2022-08-28T07:31:28.610Z,98218.23
2022-08-28T07:32:35.464Z,98215.63
2022-08-28T07:33:41.927Z,98215.63
2022-08-28T07:34:51.680Z,98219.91
2022-08-28T07:35:59.804Z,98218.27
2022-08-28T07:37:05.671Z,98216.58
2022-08-28T07:38:12.604Z,98220.38
2022-08-28T07:39:19.465Z,98220.17
2022-08-28T07:40:26.166Z,98219.18
2022-08-28T07:41:34.818Z,98220.74
2022-08-28T07:43:04.248Z,98219.11
2022-08-28T07:44:31.755Z,98219.95
2022-08-28T07:45:41.499Z,98217.50
2022-08-28T07:46:54.711Z,98217.00
2022-08-28T07:48:07.538Z,98218.52
2022-08-28T07:49:19.377Z,98217.60
2022-08-28T07:50:26.209Z,98218.34
2022-08-28T07:51:33.501Z,98219.19
2022-08-28T07:52:42.035Z,98219.50
2022-08-28T07:53:50.558Z,98216.18
2022-08-28T07:55:01.502Z,98219.10
2022-08-28T07:56:07.816Z,98220.00
2022-08-28T07:57:14.786Z,98222.00
2022-08-28T07:58:22.258Z,98219.71
2022-08-28T07:59:36.540Z,98218.29
2022-08-28T08:00:44.174Z,98223.41
2022-08-28T08:01:53.506Z,98221.44
2022-08-28T08:03:01.121Z,98223.55
2022-08-28T08:04:10.925Z,98227.50
2022-08-28T08:05:19.126Z,98223.84
2022-08-28T08:06:31.018Z,98224.84
2022-08-28T08:07:44.022Z,98223.99
2022-08-28T08:08:55.467Z,98227.39
2022-08-28T08:10:03.810Z,98226.84
2022-08-28T08:11:16.763Z,98226.75
2022-08-28T08:12:25.255Z,98229.83
2022-08-28T08:13:39.550Z,98227.37
2022-08-28T08:14:46.410Z,98230.02
2022-08-28T08:15:52.506Z,98228.04
2022-08-28T08:17:02.139Z,98225.88
2022-08-28T08:18:07.885Z,98226.00
2022-08-28T08:19:16.903Z,98226.19
2022-08-28T08:20:23.987Z,98224.98
2022-08-28T08:21:33.265Z,98227.54
2022-08-28T08:22:39.163Z,98225.45
2022-08-28T08:23:46.321Z,98226.48
2022-08-28T08:24:55.905Z,98227.07
2022-08-28T08:26:02.742Z,98225.98
2022-08-28T08:27:11.044Z,98221.64
2022-08-28T08:28:16.767Z,98217.90
2022-08-28T08:29:23.823Z,98218.21
2022-08-28T08:30:30.646Z,98219.34
2022-08-28T08:31:39.036Z,98218.99
2022-08-28T08:32:54.801Z,98217.51
2022-08-28T08:34:05.214Z,98216.44
2022-08-28T08:35:14.049Z,98218.38
2022-08-28T08:36:21.268Z,98216.74
2022-08-28T08:37:27.276Z,98216.05
2022-08-28T08:38:33.114Z,98216.46
2022-08-28T08:39:42.338Z,98215.74
2022-08-28T08:40:49.012Z,98217.59
2022-08-28T08:41:59.273Z,98215.97
2022-08-28T08:43:06.305Z,98217.98
2022-08-28T08:44:44.093Z,98218.66
2022-08-28T08:45:53.212Z,98219.44
2022-08-28T08:47:28.292Z,98222.58
2022-08-28T08:48:35.382Z,98223.84
2022-08-28T08:49:48.929Z,98223.44
2022-08-28T08:50:55.308Z,98221.41
2022-08-28T08:52:38.472Z,98221.29
2022-08-28T08:53:59.440Z,98219.39
2022-08-28T08:55:21.799Z,98222.45
2022-08-28T08:56:34.911Z,98221.42
2022-08-28T08:57:49.314Z,98220.40
2022-08-28T08:59:02.066Z,98218.81
2022-08-28T09:00:16.073Z,98222.85
2022-08-28T09:01:50.750Z,98223.04
2022-08-28T09:03:15.829Z,98219.88
2022-08-28T09:04:56.359Z,98217.64
2022-08-28T09:06:08.216Z,98217.71
2022-08-28T09:07:21.895Z,98219.25
2022-08-28T09:08:47.838Z,98217.20
2022-08-28T09:09:58.758Z,98220.66
2022-08-28T09:11:30.099Z,98222.02
2022-08-28T09:13:02.059Z,98222.71
2022-08-28T09:14:40.095Z,98223.45
2022-08-28T09:15:50.866Z,98223.83
2022-08-28T09:16:58.953Z,98220.52
2022-08-28T09:18:26.455Z,98223.17
2022-08-28T09:19:32.660Z,98222.48
2022-08-28T09:20:40.303Z,98218.85
2022-08-28T09:21:49.736Z,98223.23
2022-08-28T09:22:56.876Z,98222.11
2022-08-28T09:24:11.147Z,98221.89
2022-08-28T09:25:55.184Z,98217.80
2022-08-28T09:27:04.916Z,98223.77
2022-08-28T09:28:11.987Z,98221.80
2022-08-28T09:29:19.834Z,98222.83
2022-08-28T09:30:32.949Z,98223.63
2022-08-28T09:31:43.089Z,98227.10
2022-08-28T09:33:01.691Z,98231.02
2022-08-28T09:34:24.869Z,98228.98
2022-08-28T09:35:36.410Z,98225.98
2022-08-28T09:36:43.076Z,98228.73
2022-08-28T09:37:52.178Z,98230.20
2022-08-28T09:39:27.432Z,98232.14
2022-08-28T09:40:56.519Z,98239.23
2022-08-28T09:42:39.989Z,98240.95
2022-08-28T09:43:52.437Z,98242.95
2022-08-28T09:45:01.761Z,98239.70
2022-08-28T09:46:22.389Z,98243.10
2022-08-28T09:48:10.275Z,98242.44
2022-08-28T09:49:19.352Z,98242.89
2022-08-28T09:50:31.766Z,98243.55
2022-08-28T09:51:41.174Z,98244.89
2022-08-28T09:52:49.135Z,98247.54
2022-08-28T09:54:01.885Z,98245.36
2022-08-28T09:55:07.832Z,98243.83
2022-08-28T09:56:18.200Z,98243.83
2022-08-28T09:57:24.477Z,98243.08
2022-08-28T09:58:49.585Z,98241.32
2022-08-28T09:59:55.750Z,98243.80
2022-08-28T10:01:26.418Z,98243.11
2022-08-28T10:02:45.402Z,98246.90
2022-08-28T10:04:10.868Z,98244.17
2022-08-28T10:05:25.790Z,98242.13
2022-08-28T10:06:37.684Z,98238.95
2022-08-28T10:07:56.694Z,98243.94
2022-08-28T10:09:39.986Z,98245.02
2022-08-28T10:10:56.262Z,98245.71
2022-08-28T10:12:28.477Z,98245.36
2022-08-28T10:13:46.511Z,98242.73
2022-08-28T10:15:20.313Z,98242.21
2022-08-28T10:16:38.572Z,98244.67
2022-08-28T10:17:58.880Z,98246.39
2022-08-28T10:19:27.544Z,98249.85
2022-08-28T10:20:43.008Z,98251.11
2022-08-28T10:22:23.756Z,98247.68
2022-08-28T10:23:40.027Z,98255.30
2022-08-28T10:25:13.627Z,98254.30
2022-08-28T10:26:40.921Z,98256.12
2022-08-28T10:28:04.124Z,98254.36
2022-08-28T10:29:25.756Z,98255.42
2022-08-28T10:30:34.833Z,98257.06
2022-08-28T10:32:39.881Z,98258.66
2022-08-28T10:34:23.723Z,98254.52
2022-08-28T10:35:42.605Z,98257.29
2022-08-28T10:36:56.607Z,98255.60
2022-08-28T10:38:33.528Z,98257.28
2022-08-28T10:39:49.136Z,98257.11
2022-08-28T10:41:39.661Z,98253.44
2022-08-28T10:42:57.981Z,98251.36
2022-08-28T10:44:03.829Z,98250.83
2022-08-28T10:45:25.547Z,98252.67
2022-08-28T10:46:35.860Z,98249.60
2022-08-28T10:47:43.407Z,98251.60
2022-08-28T10:49:01.551Z,98251.50
2022-08-28T10:50:50.004Z,98255.19
2022-08-28T10:52:02.140Z,98254.16
2022-08-28T10:53:33.647Z,98256.21
2022-08-28T10:54:41.142Z,98253.92
2022-08-28T10:56:24.484Z,98255.17
2022-08-28T10:57:44.251Z,98257.02
2022-08-28T10:58:56.171Z,98257.77
2022-08-28T11:00:08.946Z,98251.96
2022-08-28T11:01:16.639Z,98251.30
2022-08-28T11:02:26.144Z,98250.95
2022-08-28T11:03:48.276Z,98253.27
2022-08-28T11:04:58.549Z,98253.04
2022-08-28T11:06:35.956Z,98252.13
2022-08-28T11:08:07.738Z,98254.55
2022-08-28T11:09:38.916Z,98255.61
2022-08-28T11:10:50.317Z,98254.61
2022-08-28T11:12:10.486Z,98256.84
2022-08-28T11:13:55.932Z,98257.11
2022-08-28T11:15:02.020Z,98257.48
2022-08-28T11:16:20.639Z,98259.31
2022-08-28T11:17:29.255Z,98255.34
2022-08-28T11:18:58.175Z,98252.68
2022-08-28T11:20:25.987Z,98252.63
2022-08-28T11:21:55.784Z,98250.27
2022-08-28T11:23:17.562Z,98250.79
2022-08-28T11:24:49.954Z,98252.02
2022-08-28T11:26:00.786Z,98252.98
2022-08-28T11:27:26.322Z,98254.44
2022-08-28T11:28:36.549Z,98251.45
2022-08-28T11:30:19.924Z,98250.15
2022-08-28T11:31:31.254Z,98249.38
2022-08-28T11:32:55.963Z,98246.77
2022-08-28T11:34:06.029Z,98245.73
2022-08-28T11:35:47.579Z,98244.77
2022-08-28T11:36:58.352Z,98241.33
2022-08-28T11:38:05.092Z,98243.40
2022-08-28T11:39:19.115Z,98242.48
2022-08-28T11:40:39.724Z,98239.83
2022-08-28T11:42:22.443Z,98241.66
2022-08-28T11:43:31.995Z,98243.48
2022-08-28T11:44:46.476Z,98247.19
2022-08-28T11:45:57.250Z,98250.29
2022-08-28T11:47:44.804Z,98249.24
2022-08-28T11:48:54.775Z,98253.72
2022-08-28T11:50:26.228Z,98257.44
2022-08-28T11:51:54.302Z,98256.34
2022-08-28T11:53:30.960Z,98258.38
2022-08-28T11:55:07.285Z,98257.09
2022-08-28T11:56:34.665Z,98256.81
2022-08-28T11:59:19.234Z,98261.79
2022-08-28T12:00:54.454Z,98260.30
2022-08-28T12:02:38.923Z,98259.20
2022-08-28T12:04:08.578Z,98257.89
2022-08-28T12:05:16.820Z,98259.14
2022-08-28T12:06:47.602Z,98257.61
2022-08-28T12:07:56.819Z,98257.80
2022-08-28T12:09:03.566Z,98259.48
2022-08-28T12:10:27.403Z,98261.48
2022-08-28T12:11:43.599Z,98262.48
2022-08-28T12:12:51.839Z,98259.88
2022-08-28T12:14:01.160Z,98259.09
2022-08-28T12:15:09.679Z,98262.33
2022-08-28T12:16:16.966Z,98264.05
2022-08-28T12:17:40.114Z,98262.59
2022-08-28T12:18:49.503Z,98263.74
2022-08-28T12:20:41.136Z,98265.77
2022-08-28T12:21:49.002Z,98265.52
2022-08-28T12:22:58.773Z,98265.91
2022-08-28T12:24:14.613Z,98265.42
2022-08-28T12:25:38.115Z,98269.02
2022-08-28T12:26:47.773Z,98270.63
2022-08-28T12:27:56.793Z,98273.43
2022-08-28T12:29:05.968Z,98274.06
2022-08-28T12:30:12.751Z,98272.89
2022-08-28T12:31:57.061Z,98273.63
2022-08-28T12:33:12.948Z,98275.48
2022-08-28T12:34:48.090Z,98274.86
2022-08-28T12:36:07.658Z,98280.19
2022-08-28T12:37:26.515Z,98277.33
2022-08-28T12:38:34.306Z,98280.44
2022-08-28T12:39:41.276Z,98279.79
2022-08-28T12:40:52.104Z,98276.24
2022-08-28T12:42:00.849Z,98278.09
2022-08-28T12:43:15.388Z,98278.23
2022-08-28T12:44:28.467Z,98278.24
2022-08-28T12:46:18.986Z,98278.91
2022-08-28T12:47:28.685Z,98282.73
2022-08-28T12:48:49.666Z,98285.18
2022-08-28T12:49:57.151Z,98285.73
2022-08-28T12:51:14.558Z,98288.75
2022-08-28T12:52:24.535Z,98288.21
2022-08-28T12:53:39.465Z,98289.94
2022-08-28T12:54:47.246Z,98289.27
2022-08-28T12:55:53.042Z,98291.08
2022-08-28T12:57:00.195Z,98291.79
2022-08-28T12:58:06.937Z,98292.86
2022-08-28T12:59:39.469Z,98291.35
2022-08-28T13:01:02.302Z,98291.41
2022-08-28T13:02:12.622Z,98294.86
2022-08-28T13:03:19.177Z,98296.53
2022-08-28T13:04:36.231Z,98294.29
2022-08-28T13:05:43.166Z,98297.73
2022-08-28T13:06:49.745Z,98299.12
2022-08-28T13:07:55.823Z,98299.92
2022-08-28T13:09:23.473Z,98303.11
2022-08-28T13:10:57.751Z,98305.73
2022-08-28T13:12:03.887Z,98305.11
2022-08-28T13:13:11.629Z,98302.95
2022-08-28T13:14:36.780Z,98303.18
2022-08-28T13:15:45.758Z,98303.31
2022-08-28T13:16:52.203Z,98302.85
2022-08-28T13:17:58.717Z,98298.11
2022-08-28T13:19:07.592Z,98299.23
2022-08-28T13:20:37.415Z,98297.70
2022-08-28T13:21:52.663Z,98297.59
2022-08-28T13:22:58.987Z,98300.61
2022-08-28T13:24:23.214Z,98297.67
2022-08-28T13:25:36.026Z,98300.16
2022-08-28T13:26:44.514Z,98299.41
2022-08-28T13:28:03.562Z,98298.57
2022-08-28T13:29:20.083Z,98299.55
2022-08-28T13:30:39.201Z,98301.07
2022-08-28T13:31:45.267Z,98305.27
2022-08-28T13:33:05.407Z,98305.97
2022-08-28T13:34:28.452Z,98306.80
2022-08-28T13:35:41.417Z,98306.47
2022-08-28T13:36:58.626Z,98306.43
2022-08-28T13:38:17.440Z,98303.12
2022-08-28T13:39:25.417Z,98307.33
2022-08-28T13:42:13.887Z,98308.67
2022-08-28T13:43:20.410Z,98310.99
2022-08-28T13:44:57.805Z,98309.70
2022-08-28T13:46:07.373Z,98312.09
2022-08-28T13:47:16.375Z,98314.31
2022-08-28T13:48:26.675Z,98317.41
2022-08-28T13:49:33.599Z,98316.39
2022-08-28T13:50:41.114Z,98313.67
2022-08-28T13:51:47.602Z,98315.71
2022-08-28T13:52:56.753Z,98316.10
2022-08-28T13:54:02.875Z,98318.55
2022-08-28T13:55:12.355Z,98319.73
2022-08-28T13:56:18.783Z,98320.74
2022-08-28T13:57:29.695Z,98320.42
2022-08-28T13:58:38.639Z,98323.08
2022-08-28T13:59:45.524Z,98321.86
2022-08-28T14:00:55.624Z,98322.97
2022-08-28T14:02:29.242Z,98322.48
2022-08-28T14:03:39.637Z,98322.92
2022-08-28T14:04:50.275Z,98323.69
2022-08-28T14:05:59.070Z,98321.20
2022-08-28T14:07:08.294Z,98321.42
2022-08-28T14:08:14.346Z,98323.77
2022-08-28T14:09:22.007Z,98318.77
2022-08-28T14:10:29.870Z,98317.39
2022-08-28T14:11:37.617Z,98317.91
2022-08-28T14:12:48.283Z,98317.80
2022-08-28T14:13:56.055Z,98321.52
2022-08-28T14:15:05.172Z,98324.64
2022-08-28T14:16:13.876Z,98328.18
2022-08-28T14:17:24.967Z,98326.70
2022-08-28T14:18:32.117Z,98326.02
2022-08-28T14:19:39.177Z,98322.72
2022-08-28T14:20:45.671Z,98328.26
2022-08-28T14:21:54.091Z,98328.27
2022-08-28T14:23:04.227Z,98327.98
2022-08-28T14:24:10.578Z,98326.33
2022-08-28T14:25:18.765Z,98325.69
2022-08-28T14:26:27.287Z,98323.80
2022-08-28T14:27:34.228Z,98325.66
2022-08-28T14:28:44.380Z,98326.19
2022-08-28T14:29:51.046Z,98330.70
2022-08-28T14:30:58.292Z,98329.36
2022-08-28T14:32:06.840Z,98326.30
2022-08-28T14:33:19.220Z,98328.44
2022-08-28T14:34:33.634Z,98330.21
2022-08-28T14:35:42.700Z,98330.55
2022-08-28T14:36:56.014Z,98331.06
2022-08-28T14:38:03.964Z,98334.14
2022-08-28T14:39:13.885Z,98337.01
2022-08-28T14:40:22.334Z,98338.45
2022-08-28T14:41:30.786Z,98340.42
2022-08-28T14:42:39.318Z,98338.58
2022-08-28T14:43:46.561Z,98341.39
2022-08-28T14:44:56.745Z,98341.10
2022-08-28T14:46:08.432Z,98338.91
2022-08-28T14:47:18.178Z,98339.41
2022-08-28T14:48:24.666Z,98340.59
2022-08-28T14:49:34.578Z,98341.88
2022-08-28T14:50:42.988Z,98341.26
2022-08-28T14:51:50.401Z,98343.18
2022-08-28T14:52:58.107Z,98344.23
2022-08-28T14:54:04.967Z,98343.30
2022-08-28T14:55:15.268Z,98343.35
2022-08-28T14:56:25.809Z,98346.81
2022-08-28T14:57:32.935Z,98348.79
2022-08-28T14:58:42.964Z,98348.95
2022-08-28T14:59:50.441Z,98351.08
2022-08-28T15:01:01.539Z,98350.64
2022-08-28T15:02:08.377Z,98350.95
2022-08-28T15:03:16.100Z,98349.79
2022-08-28T15:04:24.490Z,98350.83
2022-08-28T15:05:31.367Z,98350.70
2022-08-28T15:06:39.116Z,98347.70
2022-08-28T15:07:47.663Z,98349.13
2022-08-28T15:08:55.420Z,98350.86
2022-08-28T15:10:03.204Z,98351.55
2022-08-28T15:11:14.237Z,98352.87
2022-08-28T15:12:26.874Z,98351.23
2022-08-28T15:13:35.521Z,98349.45
2022-08-28T15:14:51.366Z,98349.04
2022-08-28T15:16:16.003Z,98350.76
2022-08-28T15:17:33.997Z,98352.23
2022-08-28T15:18:41.454Z,98352.05
2022-08-28T15:19:48.804Z,98352.15
2022-08-28T15:20:56.012Z,98351.34
2022-08-28T15:22:05.049Z,98350.65
2022-08-28T15:23:14.394Z,98351.48
2022-08-28T15:24:22.964Z,98353.19
2022-08-28T15:25:30.608Z,98351.96
2022-08-28T15:26:38.020Z,98356.45
2022-08-28T15:27:45.708Z,98356.26
2022-08-28T15:28:57.117Z,98358.15
2022-08-28T15:30:04.389Z,98359.62
2022-08-28T15:31:10.812Z,98361.34
2022-08-28T15:32:17.339Z,98363.31
2022-08-28T15:33:24.829Z,98366.69
2022-08-28T15:34:33.500Z,98366.08
2022-08-28T15:35:40.970Z,98367.80
2022-08-28T15:36:54.710Z,98366.66
2022-08-28T15:38:04.131Z,98370.17
2022-08-28T15:39:29.957Z,98370.09
2022-08-28T15:40:59.666Z,98373.42
2022-08-28T15:42:07.105Z,98374.30
2022-08-28T15:43:15.953Z,98372.52
2022-08-28T15:44:21.986Z,98372.70
2022-08-28T15:45:28.734Z,98376.73
2022-08-28T15:46:36.499Z,98379.30
2022-08-28T15:47:43.938Z,98374.70